createdAt,value
2019-03-15T00:01:35.821Z,2.10
2019-03-15T00:04:04.330Z,1.90
2019-03-15T00:06:32.748Z,2.70
2019-03-15T00:09:01.203Z,1.90
2019-03-15T00:11:29.680Z,1.87
2019-03-15T00:13:59.744Z,2.33
2019-03-15T00:16:29.344Z,1.98
2019-03-15T00:18:57.754Z,2.47
2019-03-15T00:21:26.197Z,1.75
2019-03-15T00:23:54.621Z,1.80
2019-03-15T00:26:23.052Z,1.60
2019-03-15T00:28:51.491Z,2.17
2019-03-15T00:31:19.917Z,2.25
2019-03-15T00:33:48.350Z,2.12
2019-03-15T00:36:16.787Z,2.65
2019-03-15T00:38:45.287Z,1.57
2019-03-15T00:41:13.725Z,2.50
2019-03-15T00:43:42.157Z,2.60
2019-03-15T00:46:12.190Z,2.20
2019-03-15T00:48:40.618Z,2.85
2019-03-15T00:51:09.380Z,3.35
2019-03-15T00:53:37.814Z,2.45
2019-03-15T00:56:06.256Z,3.45
2019-03-15T00:58:34.685Z,2.45
2019-03-15T01:01:03.173Z,1.72
2019-03-15T01:03:31.594Z,2.10
2019-03-15T01:06:01.226Z,2.12
2019-03-15T01:08:29.672Z,2.12
2019-03-15T01:10:58.098Z,2.00
2019-03-15T01:13:26.527Z,2.83
2019-03-15T01:15:54.944Z,1.87
2019-03-15T01:18:23.383Z,1.70
2019-03-15T01:20:51.850Z,3.95
2019-03-15T01:23:20.307Z,2.22
2019-03-15T01:25:48.732Z,1.00
2019-03-15T01:28:18.452Z,1.95
2019-03-15T01:30:48.044Z,2.72
2019-03-15T01:33:16.491Z,2.10
2019-03-15T01:35:44.989Z,3.05
2019-03-15T01:38:14.707Z,2.47
2019-03-15T01:40:43.135Z,2.08
2019-03-15T01:43:11.607Z,2.47
2019-03-15T01:45:40.095Z,2.00
2019-03-15T01:48:08.524Z,3.67
2019-03-15T01:50:36.963Z,2.37
2019-03-15T01:53:05.408Z,2.40
2019-03-15T01:55:35.076Z,2.15
2019-03-15T01:58:03.629Z,1.82
2019-03-15T02:00:32.053Z,2.20
2019-03-15T02:03:02.283Z,2.17
2019-03-15T02:05:30.626Z,2.40
2019-03-15T02:07:59.078Z,2.47
2019-03-15T02:10:27.579Z,1.75
2019-03-15T02:12:55.994Z,2.55
2019-03-15T02:15:24.438Z,2.52
2019-03-15T02:17:52.873Z,1.90
2019-03-15T02:20:21.673Z,2.02
2019-03-15T02:22:50.098Z,2.00
2019-03-15T02:25:18.522Z,2.25
2019-03-15T02:27:46.953Z,1.90
2019-03-15T02:30:15.373Z,1.82
2019-03-15T02:32:44.887Z,2.45
2019-03-15T02:35:13.316Z,2.55
2019-03-15T02:37:41.734Z,2.20
2019-03-15T02:40:10.171Z,2.30
2019-03-15T02:42:39.450Z,2.22
2019-03-15T02:45:07.968Z,2.40
2019-03-15T02:47:36.393Z,1.77
2019-03-15T02:50:05.891Z,2.33
2019-03-15T02:52:34.309Z,2.30
2019-03-15T02:55:03.267Z,3.10
2019-03-15T02:57:31.702Z,2.60
2019-03-15T03:00:00.257Z,2.33
2019-03-15T03:02:28.871Z,2.58
2019-03-15T03:04:57.305Z,2.52
2019-03-15T03:07:25.815Z,3.00
2019-03-15T03:09:54.651Z,1.55
2019-03-15T03:12:23.073Z,1.32
2019-03-15T03:14:51.508Z,2.20
2019-03-15T03:17:19.937Z,2.45
2019-03-15T03:19:48.385Z,3.10
2019-03-15T03:22:16.991Z,3.00
2019-03-15T03:24:45.526Z,2.40
2019-03-15T03:27:13.964Z,2.42
2019-03-15T03:29:42.408Z,3.30
2019-03-15T03:32:12.638Z,2.75
2019-03-15T03:34:42.164Z,2.40
2019-03-15T03:37:10.589Z,2.37
2019-03-15T03:39:39.024Z,2.15
2019-03-15T03:42:07.534Z,2.77
2019-03-15T03:44:36.564Z,2.50
2019-03-15T03:47:05.053Z,3.37
2019-03-15T03:49:33.524Z,2.72
2019-03-15T03:52:02.675Z,2.22
2019-03-15T03:54:31.273Z,1.70
2019-03-15T03:56:59.777Z,2.77
2019-03-15T03:59:28.215Z,2.67
2019-03-15T04:01:57.415Z,3.08
2019-03-15T04:04:25.907Z,1.52
2019-03-15T04:06:54.418Z,3.22
2019-03-15T04:09:22.845Z,2.75
2019-03-15T04:11:55.765Z,3.87
2019-03-15T04:14:22.319Z,3.77
2019-03-15T04:16:56.182Z,3.75
2019-03-15T04:19:25.254Z,3.12
2019-03-15T04:21:53.678Z,3.77
2019-03-15T04:24:22.127Z,3.42
2019-03-15T04:26:50.559Z,4.28
2019-03-15T04:29:19.998Z,3.55
2019-03-15T04:31:49.707Z,4.00
2019-03-15T04:34:19.352Z,4.03
2019-03-15T04:36:49.399Z,3.27
2019-03-15T04:39:19.471Z,2.95
2019-03-15T04:41:48.806Z,2.62
2019-03-15T04:44:17.244Z,3.33
2019-03-15T04:46:46.094Z,3.40
2019-03-15T04:49:17.527Z,3.47
2019-03-15T04:54:13.718Z,3.27
2019-03-15T04:56:43.324Z,3.50
2019-03-15T04:59:14.046Z,3.42
2019-03-15T05:01:42.485Z,3.33
2019-03-15T05:04:17.356Z,1.90
2019-03-15T05:06:55.210Z,2.60
2019-03-15T05:09:27.334Z,3.42
2019-03-15T05:12:01.337Z,2.23
2019-03-15T05:14:44.461Z,2.62
2019-03-15T05:17:10.245Z,2.90
2019-03-15T05:19:39.459Z,2.67
2019-03-15T05:22:11.130Z,3.80
2019-03-15T05:24:45.395Z,3.27
2019-03-15T05:27:16.955Z,2.72
2019-03-15T05:29:47.711Z,2.50
2019-03-15T05:32:17.110Z,1.80
2019-03-15T05:34:49.549Z,3.20
2019-03-15T05:37:25.571Z,2.05
2019-03-15T05:39:51.326Z,2.50
2019-03-15T05:42:19.763Z,1.92
2019-03-15T05:44:48.198Z,2.37
2019-03-15T05:47:28.769Z,2.85
2019-03-15T05:52:28.125Z,4.20
2019-03-15T05:54:56.564Z,3.58
2019-03-15T05:57:24.995Z,2.52
2019-03-15T05:59:53.433Z,2.62
2019-03-15T06:02:21.870Z,2.27
2019-03-15T06:04:50.312Z,3.22
2019-03-15T06:07:18.748Z,3.42
2019-03-15T06:09:47.425Z,2.92
2019-03-15T06:12:15.875Z,3.15
2019-03-15T06:14:46.908Z,3.83
2019-03-15T06:17:15.226Z,2.98
2019-03-15T06:19:43.680Z,3.67
2019-03-15T06:22:23.627Z,3.20
2019-03-15T06:27:31.322Z,3.90
2019-03-15T06:29:59.882Z,3.95
2019-03-15T06:32:28.321Z,4.42
2019-03-15T06:34:56.759Z,4.17
2019-03-15T06:37:25.207Z,4.95
2019-03-15T06:39:54.935Z,4.22
2019-03-15T06:42:24.049Z,4.15
2019-03-15T06:44:57.821Z,4.65
2019-03-15T06:47:22.614Z,4.45
2019-03-15T06:49:51.051Z,4.92
2019-03-15T06:52:19.497Z,5.50
2019-03-15T06:54:47.931Z,5.45
2019-03-15T06:57:16.374Z,5.87
2019-03-15T06:59:44.793Z,6.58
2019-03-15T07:02:13.238Z,5.33
2019-03-15T07:04:41.683Z,6.60
2019-03-15T07:07:10.523Z,6.42
2019-03-15T07:09:39.245Z,3.77
2019-03-15T07:12:09.743Z,9.65
2019-03-15T07:14:37.805Z,8.48
2019-03-15T07:17:06.244Z,3.98
2019-03-15T07:19:34.666Z,3.83
2019-03-15T07:22:03.085Z,5.20
2019-03-15T07:24:31.518Z,9.70
2019-03-15T07:27:12.176Z,9.33
2019-03-15T07:29:32.418Z,9.08
2019-03-15T07:32:00.854Z,9.20
2019-03-15T07:34:30.653Z,6.70
2019-03-15T07:36:59.094Z,6.35
2019-03-15T07:39:27.530Z,9.28
2019-03-15T07:41:56.029Z,7.95
2019-03-15T07:44:24.465Z,6.15
2019-03-15T07:46:52.895Z,8.33
2019-03-15T07:49:24.260Z,7.10
2019-03-15T07:51:52.686Z,8.88
2019-03-15T07:54:21.125Z,9.93
2019-03-15T07:56:49.580Z,4.22
2019-03-15T07:59:19.613Z,8.20
2019-03-15T08:01:48.055Z,6.97
2019-03-15T08:04:17.662Z,8.53
2019-03-15T08:06:46.398Z,9.45
2019-03-15T08:09:15.132Z,9.00
2019-03-15T08:11:43.553Z,6.67
2019-03-15T08:14:12.002Z,5.58
2019-03-15T08:16:40.425Z,6.53
2019-03-15T08:19:09.244Z,6.40
2019-03-15T08:21:38.746Z,6.08
2019-03-15T08:24:07.173Z,4.00
2019-03-15T08:26:36.385Z,4.37
2019-03-15T08:29:04.825Z,4.53
2019-03-15T08:31:33.917Z,3.08
2019-03-15T08:34:02.357Z,3.45
2019-03-15T08:36:31.646Z,2.98
2019-03-15T08:39:00.154Z,3.37
2019-03-15T08:41:28.585Z,2.98
2019-03-15T08:43:57.006Z,2.90
2019-03-15T08:46:25.433Z,1.47
2019-03-15T08:48:53.861Z,3.05
2019-03-15T08:51:23.568Z,3.77
2019-03-15T08:53:52.006Z,2.92
2019-03-15T08:56:20.429Z,3.37
2019-03-15T08:58:48.870Z,4.53
2019-03-15T09:01:17.311Z,3.50
2019-03-15T09:03:45.820Z,3.08
2019-03-15T09:06:14.255Z,2.35
2019-03-15T09:08:45.005Z,2.08
2019-03-15T09:11:13.502Z,3.67
2019-03-15T09:13:41.935Z,3.12
2019-03-15T09:16:10.366Z,3.98
2019-03-15T09:18:38.800Z,2.40
2019-03-15T09:21:07.234Z,4.97
2019-03-15T09:23:35.733Z,3.35
2019-03-15T09:26:05.463Z,3.33
2019-03-15T09:28:33.895Z,4.62
2019-03-15T09:31:02.338Z,1.60
2019-03-15T09:33:30.754Z,4.03
2019-03-15T09:35:59.190Z,3.98
2019-03-15T09:38:29.251Z,3.30
2019-03-15T09:40:57.689Z,2.33
2019-03-15T09:43:26.116Z,4.35
2019-03-15T09:45:55.726Z,4.05
2019-03-15T09:48:24.250Z,2.27
2019-03-15T09:50:52.680Z,2.98
2019-03-15T09:53:21.109Z,4.58
2019-03-15T09:55:49.534Z,2.83
2019-03-15T09:58:18.282Z,3.55
2019-03-15T10:00:46.970Z,2.05
2019-03-15T10:03:21.946Z,2.25
2019-03-15T10:05:45.517Z,2.70
2019-03-15T10:08:13.954Z,3.37
2019-03-15T10:10:42.425Z,3.62
2019-03-15T10:13:11.940Z,2.40
2019-03-15T10:15:40.442Z,2.80
2019-03-15T10:18:09.039Z,2.33
2019-03-15T10:20:37.769Z,2.92
2019-03-15T10:23:07.362Z,3.20
2019-03-15T10:25:46.070Z,3.42
2019-03-15T10:28:07.575Z,2.98
2019-03-15T10:30:36.015Z,2.75
2019-03-15T10:33:04.444Z,3.05
2019-03-15T10:35:32.873Z,3.40
2019-03-15T10:38:02.084Z,3.00
2019-03-15T10:40:31.233Z,2.77
2019-03-15T10:42:59.667Z,1.85
2019-03-15T10:45:28.090Z,3.05
2019-03-15T10:47:56.603Z,3.22
2019-03-15T10:50:25.034Z,2.00
2019-03-15T10:52:57.136Z,2.85
2019-03-15T10:55:25.559Z,3.90
2019-03-15T10:57:54.293Z,2.50
2019-03-15T11:00:22.821Z,2.20
2019-03-15T11:02:51.245Z,2.35
2019-03-15T11:05:19.691Z,2.25
2019-03-15T11:07:48.112Z,2.52
2019-03-15T11:10:16.694Z,2.42
2019-03-15T11:12:45.117Z,3.10
2019-03-15T11:15:14.217Z,3.12
2019-03-15T11:17:42.657Z,2.60
2019-03-15T11:20:11.561Z,2.50
2019-03-15T11:22:39.995Z,3.47
2019-03-15T11:25:09.637Z,3.33
2019-03-15T11:27:38.082Z,2.40
2019-03-15T11:30:07.879Z,3.00
2019-03-15T11:32:36.599Z,2.62
2019-03-15T11:35:06.195Z,3.10
2019-03-15T11:37:34.634Z,3.40
2019-03-15T11:40:04.625Z,2.67
2019-03-15T11:42:33.108Z,3.45
2019-03-15T11:45:01.566Z,3.85
2019-03-15T11:47:30.009Z,3.50
2019-03-15T11:49:58.425Z,2.62
2019-03-15T11:52:27.101Z,2.70
2019-03-15T11:54:55.546Z,3.12
2019-03-15T11:57:23.974Z,2.65
2019-03-15T11:59:52.482Z,2.83
2019-03-15T12:02:20.914Z,2.72
2019-03-15T12:04:49.345Z,3.92
2019-03-15T12:07:17.783Z,2.15
2019-03-15T12:09:46.218Z,3.83
2019-03-15T12:12:14.650Z,3.77
2019-03-15T12:14:44.717Z,3.25
2019-03-15T12:17:13.161Z,4.47
2019-03-15T12:19:41.593Z,3.35
2019-03-15T12:22:10.043Z,2.92
2019-03-15T12:24:38.767Z,3.10
2019-03-15T12:27:07.778Z,3.35
2019-03-15T12:29:36.220Z,3.08
2019-03-15T12:32:04.676Z,3.33
2019-03-15T12:34:33.102Z,3.08
2019-03-15T12:37:01.546Z,2.70
2019-03-15T12:39:29.986Z,4.15
2019-03-15T12:41:59.004Z,4.17
2019-03-15T12:44:29.930Z,2.98
2019-03-15T12:47:02.383Z,2.42
2019-03-15T12:49:30.818Z,2.37
2019-03-15T12:51:59.251Z,2.75
2019-03-15T12:54:28.758Z,2.60
2019-03-15T12:56:57.741Z,1.80
2019-03-15T12:59:26.182Z,2.62
2019-03-15T13:01:55.901Z,3.10
2019-03-15T13:04:24.896Z,2.60
2019-03-15T13:06:56.824Z,2.72
2019-03-15T13:09:32.618Z,2.12
2019-03-15T13:12:09.335Z,1.75
2019-03-15T13:14:37.770Z,2.15
2019-03-15T13:17:07.233Z,1.92
2019-03-15T13:19:35.677Z,2.00
2019-03-15T13:22:05.578Z,3.52
2019-03-15T13:24:36.826Z,2.75
2019-03-15T13:27:07.768Z,1.87
2019-03-15T13:29:35.542Z,2.08
2019-03-15T13:32:03.966Z,2.37
2019-03-15T13:34:32.404Z,2.35
2019-03-15T13:37:00.827Z,2.20
2019-03-15T13:39:29.259Z,1.90
2019-03-15T13:41:57.682Z,1.70
2019-03-15T13:44:27.391Z,2.72
2019-03-15T13:46:56.981Z,2.52
2019-03-15T13:49:25.769Z,3.25
2019-03-15T13:51:54.205Z,3.98
2019-03-15T13:54:24.300Z,2.33
2019-03-15T13:56:55.446Z,2.27
2019-03-15T13:59:23.882Z,2.75
2019-03-15T14:01:52.319Z,3.15
2019-03-15T14:04:20.753Z,2.75
2019-03-15T14:06:49.193Z,2.90
2019-03-15T14:09:17.660Z,2.87
2019-03-15T14:11:46.084Z,2.50
2019-03-15T14:14:14.538Z,2.33
2019-03-15T14:16:43.015Z,2.70
2019-03-15T14:19:11.450Z,2.40
2019-03-15T14:21:39.882Z,2.10
2019-03-15T14:24:10.266Z,3.17
2019-03-15T14:26:38.694Z,3.55
2019-03-15T14:29:07.135Z,2.92
2019-03-15T14:31:35.574Z,3.60
2019-03-15T14:34:04.530Z,3.35
2019-03-15T14:36:33.282Z,2.72
2019-03-15T14:39:01.937Z,3.47
2019-03-15T14:41:31.389Z,2.77
2019-03-15T14:44:04.003Z,2.55
2019-03-15T14:46:33.679Z,3.08
2019-03-15T14:49:02.140Z,2.95
2019-03-15T14:51:35.566Z,2.72
2019-03-15T14:54:04.118Z,4.03
2019-03-15T14:56:36.399Z,3.05
2019-03-15T14:59:06.426Z,2.02
2019-03-15T15:01:35.905Z,2.77
2019-03-15T15:04:07.913Z,4.28
2019-03-15T15:06:37.657Z,3.83
2019-03-15T15:09:06.666Z,2.45
2019-03-15T15:11:37.584Z,4.87
2019-03-15T15:14:06.029Z,2.17
2019-03-15T15:16:34.506Z,3.37
2019-03-15T15:19:03.713Z,2.40
2019-03-15T15:21:32.470Z,2.55
2019-03-15T15:24:02.995Z,2.58
2019-03-15T15:26:34.113Z,2.50
2019-03-15T15:29:02.538Z,2.92
2019-03-15T15:31:30.965Z,3.98
2019-03-15T15:33:59.398Z,3.50
2019-03-15T15:36:28.497Z,3.90
2019-03-15T15:38:57.810Z,3.37
2019-03-15T15:41:26.245Z,3.45
2019-03-15T15:43:55.607Z,2.95
2019-03-15T15:46:24.113Z,2.90
2019-03-15T15:48:58.016Z,1.85
2019-03-15T15:51:29.142Z,2.67
2019-03-15T15:53:58.956Z,3.02
2019-03-15T15:56:27.390Z,2.70
2019-03-15T15:58:55.838Z,2.35
2019-03-15T16:01:24.260Z,2.67
2019-03-15T16:03:52.706Z,5.28
2019-03-15T16:06:21.133Z,2.87
2019-03-15T16:08:49.603Z,3.02
2019-03-15T16:11:19.521Z,2.17
2019-03-15T16:13:48.633Z,3.40
2019-03-15T16:16:19.098Z,1.85
2019-03-15T16:18:53.241Z,1.92
2019-03-15T16:21:27.233Z,2.58
2019-03-15T16:24:07.303Z,2.72
2019-03-15T16:26:42.161Z,2.05
2019-03-15T16:29:15.873Z,3.37
2019-03-15T16:31:44.326Z,2.70
2019-03-15T16:34:12.817Z,2.52
2019-03-15T16:36:41.252Z,3.17
2019-03-15T16:39:09.682Z,3.77
2019-03-15T16:41:38.133Z,3.37
2019-03-15T16:44:06.561Z,2.08
2019-03-15T16:46:35.005Z,3.42
2019-03-15T16:49:03.569Z,2.95
2019-03-15T16:51:32.010Z,4.47
2019-03-15T16:54:00.446Z,2.47
2019-03-15T16:56:28.875Z,2.20
2019-03-15T16:58:57.314Z,2.62
2019-03-15T17:01:25.741Z,3.37
2019-03-15T17:03:54.181Z,2.45
2019-03-15T17:06:22.694Z,3.30
2019-03-15T17:08:51.128Z,2.45
2019-03-15T17:11:19.562Z,2.50
2019-03-15T17:13:48.172Z,3.10
2019-03-15T17:16:16.633Z,2.92
2019-03-15T17:18:45.313Z,3.75
2019-03-15T17:21:14.818Z,3.08
2019-03-15T17:23:43.319Z,2.85
2019-03-15T17:26:11.756Z,3.35
2019-03-15T17:28:40.249Z,2.90
2019-03-15T17:31:10.076Z,3.15
2019-03-15T17:33:38.918Z,4.25
2019-03-15T17:36:07.343Z,2.83
2019-03-15T17:38:35.932Z,3.25
2019-03-15T17:41:04.366Z,3.05
2019-03-15T17:43:33.000Z,3.50
2019-03-15T17:46:01.439Z,3.10
2019-03-15T17:48:32.241Z,2.42
2019-03-15T17:51:01.855Z,2.98
2019-03-15T17:53:30.295Z,3.17
2019-03-15T17:55:59.038Z,2.85
2019-03-15T17:58:28.446Z,2.87
2019-03-15T18:00:56.885Z,3.37
2019-03-15T18:03:25.322Z,3.37
2019-03-15T18:05:53.819Z,3.00
2019-03-15T18:08:22.248Z,3.10
2019-03-15T18:10:50.685Z,3.33
2019-03-15T18:13:19.117Z,2.95
2019-03-15T18:15:47.541Z,2.58
2019-03-15T18:18:15.985Z,3.98
2019-03-15T18:20:44.470Z,2.87
2019-03-15T18:23:12.900Z,2.67
2019-03-15T18:25:41.333Z,4.10
2019-03-15T18:28:09.766Z,2.75
2019-03-15T18:30:38.199Z,3.33
2019-03-15T18:33:06.666Z,2.62
2019-03-15T18:35:35.174Z,3.05
2019-03-15T18:38:03.605Z,2.65
2019-03-15T18:40:32.130Z,3.05
2019-03-15T18:43:00.858Z,2.30
2019-03-15T18:45:29.367Z,2.95
2019-03-15T18:47:57.942Z,3.02
2019-03-15T18:50:29.032Z,2.65
2019-03-15T18:52:57.600Z,3.70
2019-03-15T18:55:26.038Z,3.00
2019-03-15T18:57:54.465Z,2.67
2019-03-15T19:00:23.652Z,4.22
2019-03-15T19:02:52.090Z,3.60
2019-03-15T19:05:20.522Z,2.50
2019-03-15T19:07:49.014Z,1.98
2019-03-15T19:10:17.464Z,2.47
2019-03-15T19:12:46.909Z,2.72
2019-03-15T19:15:16.846Z,2.30
2019-03-15T19:17:46.358Z,2.80
2019-03-15T19:20:15.253Z,2.12
2019-03-15T19:22:43.757Z,2.55
2019-03-15T19:25:12.645Z,2.50
2019-03-15T19:27:41.081Z,4.12
2019-03-15T19:30:16.210Z,4.25
2019-03-15T19:32:44.637Z,3.37
2019-03-15T19:35:13.054Z,1.87
2019-03-15T19:37:41.562Z,3.92
2019-03-15T19:40:13.613Z,3.67
2019-03-15T19:42:44.763Z,2.35
2019-03-15T19:45:13.781Z,2.67
2019-03-15T19:47:43.067Z,3.00
2019-03-15T19:50:13.905Z,3.50
2019-03-15T19:52:42.409Z,3.35
2019-03-15T19:55:11.906Z,2.92
2019-03-15T19:57:40.350Z,9.83
2019-03-15T20:00:13.906Z,3.70
2019-03-15T20:02:42.481Z,3.62
2019-03-15T20:05:11.241Z,2.92
2019-03-15T20:07:39.827Z,3.80
2019-03-15T20:10:10.118Z,3.42
2019-03-15T20:12:38.536Z,3.20
2019-03-15T20:15:07.947Z,3.40
2019-03-15T20:17:37.570Z,4.03
2019-03-15T20:20:07.537Z,3.22
2019-03-15T20:22:36.033Z,2.87
2019-03-15T20:25:07.281Z,4.47
2019-03-15T20:27:35.790Z,3.75
2019-03-15T20:30:05.833Z,3.15
2019-03-15T20:32:34.521Z,3.40
2019-03-15T20:35:03.366Z,3.40
2019-03-15T20:37:33.169Z,2.83
2019-03-15T20:40:01.841Z,3.65
2019-03-15T20:42:30.348Z,3.77
2019-03-15T20:44:58.768Z,3.47
2019-03-15T20:47:27.210Z,2.92
2019-03-15T20:49:55.634Z,3.80
2019-03-15T20:52:24.062Z,2.67
2019-03-15T20:54:52.502Z,3.25
2019-03-15T20:57:20.927Z,2.87
2019-03-15T20:59:49.346Z,3.42
2019-03-15T21:02:17.783Z,3.85
2019-03-15T21:04:46.217Z,3.50
2019-03-15T21:07:15.813Z,3.12
2019-03-15T21:09:45.403Z,3.90
2019-03-15T21:12:13.842Z,3.42
2019-03-15T21:14:42.281Z,4.10
2019-03-15T21:17:10.713Z,4.08
2019-03-15T21:19:39.156Z,3.33
2019-03-15T21:22:07.590Z,3.45
2019-03-15T21:24:36.032Z,3.72
2019-03-15T21:27:04.523Z,3.47
2019-03-15T21:29:33.121Z,3.45
2019-03-15T21:32:01.622Z,3.40
2019-03-15T21:34:30.056Z,3.80
2019-03-15T21:36:58.494Z,4.00
2019-03-15T21:39:26.926Z,2.92
2019-03-15T21:41:55.361Z,3.87
2019-03-15T21:44:23.796Z,3.95
2019-03-15T21:46:52.237Z,3.90
2019-03-15T21:49:20.663Z,3.27
2019-03-15T21:51:49.380Z,3.37
2019-03-15T21:54:17.835Z,3.08
2019-03-15T21:56:46.248Z,3.72
2019-03-15T21:59:14.681Z,3.30
2019-03-15T22:01:43.123Z,2.95
2019-03-15T22:04:11.622Z,3.30
2019-03-15T22:06:40.054Z,3.30
2019-03-15T22:09:08.484Z,3.12
2019-03-15T22:11:36.913Z,3.83
2019-03-15T22:14:05.430Z,3.60
2019-03-15T22:16:33.859Z,3.98
2019-03-15T22:19:02.294Z,3.52
2019-03-15T22:21:30.729Z,4.42
2019-03-15T22:24:00.134Z,3.45
2019-03-15T22:26:28.570Z,3.62
2019-03-15T22:28:57.065Z,3.80
2019-03-15T22:31:25.518Z,4.00
2019-03-15T22:33:53.962Z,3.17
2019-03-15T22:36:22.388Z,3.30
2019-03-15T22:38:50.834Z,3.52
2019-03-15T22:41:19.268Z,3.45
2019-03-15T22:43:47.692Z,2.80
2019-03-15T22:46:16.115Z,4.10
2019-03-15T22:48:44.625Z,2.85
2019-03-15T22:51:13.068Z,3.17
2019-03-15T22:53:42.565Z,3.70
2019-03-15T22:56:11.006Z,3.80
2019-03-15T22:58:39.446Z,2.87
2019-03-15T23:01:07.936Z,3.60
2019-03-15T23:03:38.022Z,3.17
2019-03-15T23:06:06.446Z,2.02
2019-03-15T23:08:34.873Z,3.00
2019-03-15T23:11:03.289Z,2.90
2019-03-15T23:13:31.714Z,2.12
2019-03-15T23:16:00.151Z,3.05
2019-03-15T23:18:28.573Z,2.42
2019-03-15T23:20:57.154Z,1.92
2019-03-15T23:23:25.585Z,2.52
2019-03-15T23:25:54.013Z,2.75
2019-03-15T23:28:23.525Z,2.47
2019-03-15T23:30:51.950Z,2.00
2019-03-15T23:33:20.377Z,2.58
2019-03-15T23:35:53.937Z,2.15
2019-03-15T23:38:18.929Z,2.00
2019-03-15T23:40:47.357Z,1.72
2019-03-15T23:43:15.780Z,1.67
2019-03-15T23:45:44.209Z,1.35
2019-03-15T23:48:12.632Z,1.70
2019-03-15T23:50:41.057Z,1.80
2019-03-15T23:53:09.481Z,1.60
2019-03-15T23:55:37.907Z,2.17
2019-03-15T23:58:06.345Z,1.72
